createdAt,value
2018-07-17T00:01:05.116Z,3.50
2018-07-17T00:03:33.388Z,3.50
2018-07-17T00:06:01.703Z,3.43
2018-07-17T00:08:29.709Z,3.13
2018-07-17T00:10:58.376Z,3.47
2018-07-17T00:13:26.665Z,3.03
2018-07-17T00:15:54.948Z,3.20
2018-07-17T00:18:23.240Z,4.23
2018-07-17T00:20:51.511Z,4.37
2018-07-17T00:23:20.076Z,4.33
2018-07-17T00:25:48.345Z,4.67
2018-07-17T00:28:16.999Z,4.87
2018-07-17T00:30:45.231Z,7.03
2018-07-17T00:33:13.504Z,6.87
2018-07-17T00:35:41.535Z,6.77
2018-07-17T00:38:09.877Z,9.00
2018-07-17T00:40:37.887Z,9.60
2018-07-17T00:43:06.139Z,9.27
2018-07-17T00:45:34.167Z,9.27
2018-07-17T00:48:02.622Z,8.10
2018-07-17T00:50:30.871Z,9.80
2018-07-17T00:52:59.136Z,9.20
2018-07-17T00:55:27.427Z,8.83
2018-07-17T00:57:55.735Z,8.97
2018-07-17T01:00:29.452Z,8.23
2018-07-17T01:03:03.150Z,8.97
2018-07-17T01:05:36.985Z,8.97
2018-07-17T01:08:10.716Z,9.90
2018-07-17T01:10:44.303Z,9.47
2018-07-17T01:13:18.366Z,9.10
2018-07-17T01:15:46.684Z,12.87
2018-07-17T01:18:14.985Z,10.43
2018-07-17T01:20:43.283Z,11.07
2018-07-17T01:23:11.560Z,11.93
2018-07-17T01:25:39.831Z,11.90
2018-07-17T01:28:08.439Z,11.20
2018-07-17T01:30:36.728Z,13.43
2018-07-17T01:33:05.057Z,11.40
2018-07-17T01:35:33.371Z,10.50
2018-07-17T01:38:01.645Z,11.47
2018-07-17T01:40:29.952Z,9.77
2018-07-17T01:42:58.218Z,11.20
2018-07-17T01:45:26.536Z,9.80
2018-07-17T01:47:54.817Z,9.00
2018-07-17T01:50:23.429Z,8.80
2018-07-17T01:52:51.709Z,8.23
2018-07-17T01:55:19.727Z,8.13
2018-07-17T01:57:48.082Z,7.07
2018-07-17T02:00:16.394Z,8.33
2018-07-17T02:02:44.684Z,6.90
2018-07-17T02:05:12.947Z,6.97
2018-07-17T02:07:41.017Z,6.90
2018-07-17T02:10:09.309Z,5.87
2018-07-17T02:12:37.588Z,5.90
2018-07-17T02:15:05.887Z,5.40
2018-07-17T02:17:34.185Z,4.77
2018-07-17T02:20:02.214Z,4.80
2018-07-17T02:22:30.484Z,5.00
2018-07-17T02:24:58.785Z,4.50
2018-07-17T02:27:27.131Z,3.73
2018-07-17T02:29:55.538Z,4.40
2018-07-17T02:32:23.893Z,4.23
2018-07-17T02:34:52.205Z,3.87
2018-07-17T02:37:20.275Z,3.97
2018-07-17T02:39:48.696Z,3.50
2018-07-17T02:42:16.993Z,3.10
2018-07-17T02:44:45.323Z,3.10
2018-07-17T02:47:13.617Z,2.97
2018-07-17T02:49:41.932Z,3.30
2018-07-17T02:52:10.217Z,3.27
2018-07-17T02:54:38.549Z,3.50
2018-07-17T02:57:06.922Z,2.87
2018-07-17T02:59:35.242Z,2.77
2018-07-17T03:02:03.539Z,2.43
2018-07-17T03:04:32.179Z,2.30
2018-07-17T03:07:00.238Z,2.70
2018-07-17T03:09:28.512Z,2.70
2018-07-17T03:11:56.848Z,2.97
2018-07-17T03:14:24.921Z,2.50
2018-07-17T03:16:53.275Z,2.80
2018-07-17T03:19:21.576Z,2.80
2018-07-17T03:21:49.944Z,2.50
2018-07-17T03:24:18.320Z,2.60
2018-07-17T03:26:46.714Z,2.60
2018-07-17T03:29:15.054Z,2.90
2018-07-17T03:31:43.367Z,2.60
2018-07-17T03:34:11.440Z,2.80
2018-07-17T03:36:39.467Z,2.90
2018-07-17T03:39:08.493Z,3.00
2018-07-17T03:41:36.927Z,3.03
2018-07-17T03:44:04.979Z,3.33
2018-07-17T03:46:33.456Z,2.60
2018-07-17T03:49:01.921Z,3.30
2018-07-17T03:51:30.301Z,3.80
2018-07-17T03:53:58.710Z,3.80
2018-07-17T03:56:27.460Z,4.20
2018-07-17T03:58:56.014Z,4.07
2018-07-17T04:01:24.628Z,3.90
2018-07-17T04:03:53.052Z,4.10
2018-07-17T04:06:21.370Z,3.60
2018-07-17T04:08:49.657Z,3.13
2018-07-17T04:11:18.172Z,3.37
2018-07-17T04:13:46.592Z,3.10
2018-07-17T04:16:15.009Z,3.60
2018-07-17T04:18:43.237Z,3.20
2018-07-17T04:21:11.891Z,3.30
2018-07-17T04:23:40.611Z,2.90
2018-07-17T04:26:08.689Z,3.10
2018-07-17T04:28:37.187Z,2.70
2018-07-17T04:31:05.708Z,3.10
2018-07-17T04:33:34.086Z,2.80
2018-07-17T04:36:02.538Z,3.33
2018-07-17T04:38:31.005Z,3.20
2018-07-17T04:40:59.364Z,2.70
2018-07-17T04:43:27.758Z,3.10
2018-07-17T04:45:56.347Z,3.37
2018-07-17T04:48:25.128Z,3.47
2018-07-17T04:50:53.264Z,3.33
2018-07-17T04:53:21.660Z,3.27
2018-07-17T04:55:50.331Z,2.90
2018-07-17T04:58:18.801Z,3.23
2018-07-17T05:00:46.903Z,2.87
2018-07-17T05:03:15.264Z,3.13
2018-07-17T05:05:43.379Z,3.30
2018-07-17T05:08:11.708Z,3.93
2018-07-17T05:10:40.145Z,3.93
2018-07-17T05:13:08.407Z,3.63
2018-07-17T05:15:36.696Z,4.20
2018-07-17T05:18:05.305Z,4.43
2018-07-17T05:20:33.755Z,4.67
2018-07-17T05:23:02.613Z,4.70
2018-07-17T05:25:31.139Z,5.53
2018-07-17T05:27:59.523Z,5.27
2018-07-17T05:30:27.904Z,5.20
2018-07-17T05:32:56.329Z,4.77
2018-07-17T05:35:25.299Z,6.57
2018-07-17T05:37:53.609Z,6.50
2018-07-17T05:40:22.000Z,6.90
2018-07-17T05:42:51.392Z,5.70
2018-07-17T05:45:29.014Z,6.57
2018-07-17T05:48:10.100Z,7.00
2018-07-17T05:50:50.467Z,7.77
2018-07-17T05:53:18.833Z,6.83
2018-07-17T05:55:46.913Z,8.57
2018-07-17T05:58:15.302Z,7.63
2018-07-17T06:03:45.742Z,7.50
2018-07-17T06:06:14.072Z,7.37
2018-07-17T06:08:42.552Z,7.67
2018-07-17T06:11:10.936Z,8.30
2018-07-17T06:13:39.404Z,8.30
2018-07-17T06:16:07.801Z,7.67
2018-07-17T06:18:36.136Z,6.60
2018-07-17T06:21:04.219Z,5.97
2018-07-17T06:23:32.614Z,6.53
2018-07-17T06:26:00.795Z,6.50
2018-07-17T06:28:28.911Z,6.30
2018-07-17T06:30:57.302Z,6.63
2018-07-17T06:33:25.726Z,6.80
2018-07-17T06:35:54.068Z,6.23
2018-07-17T06:38:22.956Z,5.53
2018-07-17T06:40:51.297Z,6.30
2018-07-17T06:43:19.658Z,4.60
2018-07-17T06:45:48.045Z,5.33
2018-07-17T06:48:16.450Z,4.93
2018-07-17T06:50:44.598Z,4.70
2018-07-17T06:53:12.891Z,4.80
2018-07-17T06:55:40.943Z,4.87
2018-07-17T06:58:09.333Z,4.70
2018-07-17T07:00:37.698Z,4.33
2018-07-17T07:03:06.000Z,4.33
2018-07-17T07:05:34.324Z,4.07
2018-07-17T07:08:02.616Z,4.10
2018-07-17T07:10:30.995Z,3.67
2018-07-17T07:12:59.310Z,4.13
2018-07-17T07:15:27.352Z,4.17
2018-07-17T07:17:55.717Z,4.30
2018-07-17T07:20:24.062Z,4.67
2018-07-17T07:22:52.117Z,4.80
2018-07-17T07:25:20.447Z,4.97
2018-07-17T07:27:48.533Z,4.80
2018-07-17T07:30:16.864Z,4.53
2018-07-17T07:32:45.197Z,5.30
2018-07-17T07:35:13.259Z,4.00
2018-07-17T07:37:41.560Z,4.80
2018-07-17T07:40:09.946Z,5.40
2018-07-17T07:42:38.416Z,4.47
2018-07-17T07:45:06.736Z,4.83
2018-07-17T07:47:35.040Z,5.23
2018-07-17T07:50:03.057Z,4.13
2018-07-17T07:52:31.353Z,4.10
2018-07-17T07:54:59.912Z,3.90
2018-07-17T07:57:28.661Z,3.70
2018-07-17T07:59:57.091Z,3.80
2018-07-17T08:02:25.137Z,4.10
2018-07-17T08:04:53.444Z,3.20
2018-07-17T08:07:21.723Z,3.57
2018-07-17T08:09:50.028Z,3.03
2018-07-17T08:12:18.312Z,3.53
2018-07-17T08:14:47.228Z,2.80
2018-07-17T08:17:15.519Z,2.97
2018-07-17T08:19:43.812Z,3.23
2018-07-17T08:22:12.161Z,3.20
2018-07-17T08:24:40.559Z,2.93
2018-07-17T08:27:08.842Z,3.07
2018-07-17T08:29:37.227Z,2.50
2018-07-17T08:32:06.020Z,3.00
2018-07-17T08:34:34.369Z,2.53
2018-07-17T08:37:02.676Z,2.93
2018-07-17T08:39:30.965Z,2.93
2018-07-17T08:41:59.244Z,3.00
2018-07-17T08:44:27.279Z,2.90
2018-07-17T08:46:55.562Z,2.63
2018-07-17T08:49:23.844Z,2.60
2018-07-17T08:51:52.129Z,2.30
2018-07-17T08:54:20.464Z,2.67
2018-07-17T08:56:48.710Z,2.80
2018-07-17T08:59:17.060Z,2.37
2018-07-17T09:01:45.344Z,2.73
2018-07-17T09:04:13.358Z,2.73
2018-07-17T09:06:41.647Z,2.80
2018-07-17T09:09:09.928Z,2.50
2018-07-17T09:11:38.232Z,2.40
2018-07-17T09:14:06.503Z,2.27
2018-07-17T09:16:35.411Z,2.90
2018-07-17T09:19:03.684Z,2.20
2018-07-17T09:21:31.970Z,2.60
2018-07-17T09:24:00.243Z,2.30
2018-07-17T09:26:28.247Z,2.23
2018-07-17T09:28:56.541Z,2.90
2018-07-17T09:31:24.824Z,2.10
2018-07-17T09:33:53.124Z,1.97
2018-07-17T09:36:21.400Z,2.30
2018-07-17T09:38:49.686Z,2.63
2018-07-17T09:41:18.013Z,2.50
2018-07-17T09:43:46.305Z,2.63
2018-07-17T09:46:14.649Z,2.43
2018-07-17T09:48:43.027Z,2.57
2018-07-17T09:51:11.065Z,2.33
2018-07-17T09:53:39.373Z,2.50
2018-07-17T09:56:07.675Z,2.60
2018-07-17T09:58:35.948Z,2.83
2018-07-17T10:01:09.640Z,2.60
2018-07-17T10:03:37.935Z,3.00
2018-07-17T10:06:06.251Z,3.10
2018-07-17T10:08:34.508Z,3.03
2018-07-17T10:11:03.093Z,3.60
2018-07-17T10:13:31.380Z,3.10
2018-07-17T10:15:59.760Z,3.27
2018-07-17T10:18:28.068Z,4.30
2018-07-17T10:20:56.359Z,3.83
2018-07-17T10:23:25.050Z,3.70
2018-07-17T10:25:53.346Z,3.80
2018-07-17T10:28:21.647Z,3.07
2018-07-17T10:30:49.956Z,3.50
2018-07-17T10:33:18.266Z,3.40
2018-07-17T10:35:46.309Z,3.00
2018-07-17T10:38:14.664Z,3.00
2018-07-17T10:40:42.996Z,3.23
2018-07-17T10:43:11.275Z,2.97
2018-07-17T10:45:39.577Z,3.30
2018-07-17T10:48:07.852Z,3.40
2018-07-17T10:50:36.176Z,3.23
2018-07-17T10:53:04.452Z,3.03
2018-07-17T10:55:32.704Z,3.37
2018-07-17T10:58:00.999Z,3.50
2018-07-17T11:00:29.305Z,3.30
2018-07-17T11:02:57.632Z,2.60
2018-07-17T11:05:25.680Z,2.67
2018-07-17T11:07:53.976Z,2.97
2018-07-17T11:10:22.317Z,3.00
2018-07-17T11:12:50.615Z,3.40
2018-07-17T11:15:18.920Z,2.83
2018-07-17T11:17:47.213Z,3.20
2018-07-17T11:20:15.517Z,3.07
2018-07-17T11:22:43.830Z,3.10
2018-07-17T11:25:11.833Z,3.10
2018-07-17T11:27:40.080Z,3.30
2018-07-17T11:30:08.383Z,3.30
2018-07-17T11:32:36.660Z,2.97
2018-07-17T11:35:05.428Z,3.10
2018-07-17T11:37:33.704Z,3.63
2018-07-17T11:40:01.992Z,3.10
2018-07-17T11:42:30.303Z,2.70
2018-07-17T11:44:58.613Z,3.20
2018-07-17T11:47:26.928Z,3.13
2018-07-17T11:49:54.998Z,3.73
2018-07-17T11:52:23.269Z,3.20
2018-07-17T11:54:51.541Z,3.37
2018-07-17T11:57:19.836Z,3.10
2018-07-17T11:59:48.292Z,2.60
2018-07-17T12:02:16.559Z,2.90
2018-07-17T12:04:44.822Z,2.20
2018-07-17T12:07:13.106Z,2.80
2018-07-17T12:09:41.376Z,3.00
2018-07-17T12:12:09.748Z,3.10
2018-07-17T12:14:38.012Z,2.63
2018-07-17T12:17:06.292Z,2.80
2018-07-17T12:19:34.304Z,2.77
2018-07-17T12:22:02.566Z,2.83
2018-07-17T12:24:30.579Z,2.10
2018-07-17T12:26:58.845Z,2.60
2018-07-17T12:29:27.131Z,2.73
2018-07-17T12:31:55.460Z,2.60
2018-07-17T12:34:23.986Z,2.60
2018-07-17T12:36:52.296Z,3.00
2018-07-17T12:39:20.332Z,3.10
2018-07-17T12:41:48.719Z,2.70
2018-07-17T12:44:17.066Z,2.20
2018-07-17T12:46:45.075Z,2.20
2018-07-17T12:49:13.327Z,3.03
2018-07-17T12:51:41.343Z,2.07
2018-07-17T12:54:09.699Z,2.00
2018-07-17T12:56:37.712Z,1.70
2018-07-17T12:59:06.044Z,1.80
2018-07-17T13:01:34.331Z,2.00
2018-07-17T13:04:02.620Z,2.30
2018-07-17T13:06:31.009Z,2.57
2018-07-17T13:08:59.288Z,2.87
2018-07-17T13:11:27.560Z,3.47
2018-07-17T13:13:55.933Z,2.77
2018-07-17T13:16:24.317Z,2.87
2018-07-17T13:18:52.608Z,2.80
2018-07-17T13:21:20.877Z,2.13
2018-07-17T13:23:49.209Z,2.57
2018-07-17T13:26:17.568Z,2.80
2018-07-17T13:28:45.865Z,2.60
2018-07-17T13:31:14.148Z,2.60
2018-07-17T13:33:42.466Z,2.60
2018-07-17T13:36:10.732Z,2.93
2018-07-17T13:38:39.013Z,3.10
2018-07-17T13:41:07.448Z,2.80
2018-07-17T13:43:35.811Z,2.40
2018-07-17T13:46:04.428Z,2.33
2018-07-17T13:48:32.892Z,2.93
2018-07-17T13:51:01.228Z,2.13
2018-07-17T13:53:29.529Z,2.67
2018-07-17T13:55:57.873Z,3.07
2018-07-17T13:58:26.187Z,2.63
2018-07-17T14:00:54.472Z,2.87
2018-07-17T14:03:22.739Z,2.90
2018-07-17T14:05:51.041Z,2.00
2018-07-17T14:08:19.376Z,3.57
2018-07-17T14:10:47.380Z,3.37
2018-07-17T14:13:15.667Z,3.27
2018-07-17T14:15:43.940Z,3.87
2018-07-17T14:18:11.950Z,3.60
2018-07-17T14:20:40.210Z,2.80
2018-07-17T14:23:08.508Z,2.07
2018-07-17T14:25:36.779Z,2.10
2018-07-17T14:28:04.958Z,2.03
2018-07-17T14:30:33.281Z,1.93
2018-07-17T14:33:02.185Z,2.00
2018-07-17T14:35:30.504Z,2.17
2018-07-17T14:37:58.793Z,2.00
2018-07-17T14:40:27.423Z,2.03
2018-07-17T14:42:55.734Z,1.90
2018-07-17T14:45:24.017Z,2.07
2018-07-17T14:47:52.324Z,2.33
2018-07-17T14:50:20.972Z,2.57
2018-07-17T14:52:49.276Z,3.00
2018-07-17T14:55:17.532Z,2.73
2018-07-17T14:57:45.882Z,3.10
2018-07-17T15:00:14.224Z,3.13
2018-07-17T15:02:42.504Z,2.87
2018-07-17T15:05:11.821Z,2.67
2018-07-17T15:07:40.112Z,2.50
2018-07-17T15:10:08.994Z,2.70
2018-07-17T15:12:37.300Z,3.07
2018-07-17T15:15:05.720Z,3.07
2018-07-17T15:17:34.057Z,3.10
2018-07-17T15:20:02.445Z,3.50
2018-07-17T15:22:30.809Z,3.67
2018-07-17T15:24:59.104Z,2.77
2018-07-17T15:27:27.478Z,3.30
2018-07-17T15:29:55.819Z,2.90
2018-07-17T15:32:24.364Z,3.40
2018-07-17T15:34:52.663Z,3.03
2018-07-17T15:37:20.692Z,2.70
2018-07-17T15:39:48.993Z,3.30
2018-07-17T15:42:17.356Z,3.30
2018-07-17T15:44:45.828Z,3.30
2018-07-17T15:47:14.156Z,3.83
2018-07-17T15:49:42.443Z,3.27
2018-07-17T15:52:10.709Z,3.20
2018-07-17T15:54:40.006Z,3.40
2018-07-17T15:57:08.267Z,3.23
2018-07-17T15:59:36.545Z,3.10
2018-07-17T16:02:04.817Z,4.23
2018-07-17T16:04:33.104Z,3.00
2018-07-17T16:07:01.431Z,3.03
2018-07-17T16:09:29.497Z,3.40
2018-07-17T16:11:57.836Z,3.17
2018-07-17T16:14:26.481Z,3.80
2018-07-17T16:16:54.680Z,4.77
2018-07-17T16:19:23.009Z,3.20
2018-07-17T16:21:51.297Z,4.37
2018-07-17T16:24:19.576Z,3.13
2018-07-17T16:26:47.954Z,3.23
2018-07-17T16:29:16.437Z,3.73
2018-07-17T16:31:44.506Z,3.20
2018-07-17T16:34:12.787Z,3.33
2018-07-17T16:36:41.296Z,3.40
2018-07-17T16:39:09.546Z,3.63
2018-07-17T16:41:37.812Z,4.07
2018-07-17T16:44:06.155Z,3.13
2018-07-17T16:46:34.459Z,4.20
2018-07-17T16:49:02.468Z,3.47
2018-07-17T16:51:32.004Z,5.70
2018-07-17T16:54:00.370Z,3.97
2018-07-17T16:56:28.692Z,3.73
2018-07-17T16:58:57.008Z,3.80
2018-07-17T17:01:25.385Z,4.83
2018-07-17T17:03:53.690Z,3.80
2018-07-17T17:06:22.004Z,5.27
2018-07-17T17:08:50.068Z,4.20
2018-07-17T17:11:18.360Z,3.43
2018-07-17T17:13:47.861Z,3.03
2018-07-17T17:16:16.362Z,2.83
2018-07-17T17:18:44.738Z,2.37
2018-07-17T17:21:13.012Z,2.57
2018-07-17T17:23:41.369Z,2.80
2018-07-17T17:26:09.693Z,2.00
2018-07-17T17:28:37.969Z,2.20
2018-07-17T17:31:06.298Z,4.40
2018-07-17T17:33:34.670Z,5.03
2018-07-17T17:36:02.966Z,2.63
2018-07-17T17:38:31.270Z,1.97
2018-07-17T17:40:59.551Z,2.70
2018-07-17T17:43:27.875Z,2.10
2018-07-17T17:48:30.462Z,2.03
2018-07-17T17:50:58.777Z,2.00
2018-07-17T17:53:26.820Z,2.57
2018-07-17T17:55:56.094Z,2.17
2018-07-17T17:58:24.509Z,2.47
2018-07-17T18:00:52.819Z,1.83
2018-07-17T18:03:21.212Z,2.20
2018-07-17T18:05:49.584Z,1.90
2018-07-17T18:08:17.893Z,2.33
2018-07-17T18:10:46.417Z,3.53
2018-07-17T18:13:14.478Z,1.87
2018-07-17T18:15:42.886Z,2.17
2018-07-17T18:18:11.065Z,3.20
2018-07-17T18:20:39.350Z,2.00
2018-07-17T18:23:07.616Z,1.93
2018-07-17T18:25:35.971Z,2.40
2018-07-17T18:28:04.303Z,1.97
2018-07-17T18:30:32.660Z,2.80
2018-07-17T18:33:01.084Z,2.23
2018-07-17T18:35:29.492Z,1.97
2018-07-17T18:37:57.878Z,2.10
2018-07-17T18:40:27.363Z,1.80
2018-07-17T18:42:55.856Z,1.70
2018-07-17T18:45:24.326Z,2.47
2018-07-17T18:47:52.764Z,2.30
2018-07-17T18:50:21.093Z,1.97
2018-07-17T18:52:49.416Z,2.30
2018-07-17T18:55:17.734Z,3.07
2018-07-17T18:57:46.154Z,5.80
2018-07-17T19:00:14.295Z,2.70
2018-07-17T19:02:42.689Z,3.60
2018-07-17T19:05:11.175Z,2.37
2018-07-17T19:07:39.600Z,1.90
2018-07-17T19:10:07.980Z,2.33
2018-07-17T19:12:36.356Z,2.00
2018-07-17T19:15:05.216Z,2.07
2018-07-17T19:17:33.616Z,1.93
2018-07-17T19:20:02.083Z,1.47
2018-07-17T19:22:30.248Z,1.70
2018-07-17T19:24:58.649Z,2.07
2018-07-17T19:27:27.379Z,2.03
2018-07-17T19:29:55.970Z,2.43
2018-07-17T19:32:24.451Z,2.10
2018-07-17T19:34:53.209Z,2.17
2018-07-17T19:37:21.593Z,1.90
2018-07-17T19:39:49.973Z,1.70
2018-07-17T19:42:18.411Z,1.70
2018-07-17T19:44:46.829Z,1.70
2018-07-17T19:47:15.192Z,2.53
2018-07-17T19:49:43.284Z,1.40
2018-07-17T19:52:11.415Z,2.30
2018-07-17T19:54:39.767Z,1.87
2018-07-17T19:57:07.827Z,1.90
2018-07-17T19:59:36.229Z,2.07
2018-07-17T20:02:05.012Z,1.97
2018-07-17T20:04:33.361Z,1.60
2018-07-17T20:07:02.006Z,1.37
2018-07-17T20:09:30.475Z,1.70
2018-07-17T20:11:58.995Z,1.70
2018-07-17T20:14:27.429Z,1.50
2018-07-17T20:16:55.993Z,1.63
2018-07-17T20:19:24.214Z,1.80
2018-07-17T20:21:52.610Z,1.73
2018-07-17T20:24:21.056Z,2.23
2018-07-17T20:26:49.103Z,1.87
2018-07-17T20:29:17.577Z,1.97
2018-07-17T20:31:46.128Z,1.33
2018-07-17T20:34:14.187Z,1.50
2018-07-17T20:36:42.720Z,1.50
2018-07-17T20:39:11.442Z,1.77
2018-07-17T20:41:40.308Z,1.60
2018-07-17T20:44:08.453Z,1.80
2018-07-17T20:46:37.001Z,1.70
2018-07-17T20:49:05.438Z,1.40
2018-07-17T20:51:33.859Z,1.80
2018-07-17T20:54:02.484Z,1.63
2018-07-17T20:56:30.639Z,1.23
2018-07-17T20:58:58.983Z,1.67
2018-07-17T21:01:27.457Z,1.60
2018-07-17T21:03:55.890Z,1.70
2018-07-17T21:06:24.559Z,1.43
2018-07-17T21:08:53.566Z,1.87
2018-07-17T21:11:22.126Z,1.90
2018-07-17T21:13:50.195Z,1.60
2018-07-17T21:16:18.330Z,2.60
2018-07-17T21:18:50.604Z,1.80
2018-07-17T21:21:19.352Z,2.10
2018-07-17T21:23:47.813Z,1.60
2018-07-17T21:26:16.601Z,1.70
2018-07-17T21:28:44.997Z,1.77
2018-07-17T21:31:13.336Z,2.00
2018-07-17T21:33:42.081Z,1.77
2018-07-17T21:36:10.647Z,2.20
2018-07-17T21:38:39.091Z,2.33
2018-07-17T21:41:07.676Z,2.43
2018-07-17T21:43:36.119Z,2.03
2018-07-17T21:46:04.689Z,2.33
2018-07-17T21:48:33.076Z,2.03
2018-07-17T21:51:01.496Z,2.20
2018-07-17T21:53:29.894Z,2.07
2018-07-17T21:55:58.473Z,2.53
2018-07-17T21:58:26.948Z,2.10
2018-07-17T22:00:57.590Z,2.10
2018-07-17T22:03:26.017Z,2.67
2018-07-17T22:05:54.679Z,2.13
2018-07-17T22:08:23.031Z,2.30
2018-07-17T22:10:51.372Z,2.50
2018-07-17T22:13:19.772Z,2.50
2018-07-17T22:15:48.184Z,2.63
2018-07-17T22:18:16.315Z,2.37
2018-07-17T22:20:44.681Z,2.50
2018-07-17T22:23:12.889Z,2.40
2018-07-17T22:25:41.572Z,2.50
2018-07-17T22:28:10.477Z,2.80
2018-07-17T22:30:38.773Z,2.20
2018-07-17T22:33:07.225Z,2.33
2018-07-17T22:35:35.565Z,2.40
2018-07-17T22:38:04.419Z,2.00
2018-07-17T22:40:32.988Z,2.37
2018-07-17T22:43:01.558Z,2.00
2018-07-17T22:45:29.987Z,1.77
2018-07-17T22:47:58.615Z,2.43
2018-07-17T22:50:27.060Z,1.90
2018-07-17T22:52:55.393Z,2.33
2018-07-17T22:55:23.579Z,1.73
2018-07-17T22:57:52.212Z,2.23
2018-07-17T23:00:22.216Z,2.13
2018-07-17T23:02:51.294Z,2.20
2018-07-17T23:05:20.703Z,2.37
2018-07-17T23:07:49.099Z,2.00
2018-07-17T23:10:17.511Z,2.10
2018-07-17T23:12:46.607Z,2.23
2018-07-17T23:15:16.135Z,2.27
2018-07-17T23:17:45.543Z,2.10
2018-07-17T23:20:17.319Z,1.73
2018-07-17T23:22:59.848Z,1.77
2018-07-17T23:25:34.238Z,1.70
2018-07-17T23:28:03.472Z,1.73
2018-07-17T23:30:32.999Z,1.70
2018-07-17T23:33:02.416Z,1.70
2018-07-17T23:35:34.162Z,2.00
2018-07-17T23:38:06.649Z,1.90
2018-07-17T23:40:37.735Z,1.90
2018-07-17T23:43:07.198Z,1.73
2018-07-17T23:45:39.445Z,1.63
2018-07-17T23:48:14.500Z,1.90
2018-07-17T23:50:47.346Z,2.27
2018-07-17T23:53:16.741Z,1.60
2018-07-17T23:55:48.185Z,1.90
2018-07-17T23:58:30.540Z,1.63
